Golden Hills, California
Current Conditions -  °F | °C
As of 1:15 AM on Saturday 01 Nov 2014 (Local Time) from KTSP Reporting Station
Light Rain Light Rain  
Wind Chill: 38°   Ceiling: 3200
Heat Index: 41°   Visibility: 3mi
Dew Point: 41°   Wind: 5mph
Humidity: 100%   Direction: 310°NW
Pressure: 29.81"   Gusts: NA
Location:  35.1338°N, 118.552°W
Report Text: KTSP 010815Z AUTO 31004KT 3SM -RA FEW012 OVC032 05/05 A2981 RMK AO2 P0002
Loading
Personal Weather Stations






























Interactive Weather Map New forecast layout! Learn more

10-Day Weather Forecast

Advertisements
Track Severe Weather on mobile